Time;durP1;ratioP1;P1;durP2;ratioP2;P2;SDS_P1;SDS_P2;PMS_P1;PMS_P2;Temp;Humidity;BMP_temperature;BMP_pressure;BME280_temperature;BME280_humidity;BME280_pressure;Samples;Min_cycle;Max_cycle;Signal;HPM_P1;HPM_P2
2022/07/21 00:01:48;;;;;;;7.72;2.95;;;;;;;12.09;100.00;100453.28;1670841;85;21083;-42
2022/07/21 00:04:17;;;;;;;8.28;3.05;;;;;;;12.07;100.00;100460.25;1664790;84;21261;-42
2022/07/21 00:06:46;;;;;;;5.55;3.20;;;;;;;12.03;100.00;100454.30;1658373;86;20995;-44
2022/07/21 00:09:14;;;;;;;4.58;3.22;;;;;;;12.02;100.00;100459.52;1705472;83;20980;-43
2022/07/21 00:11:43;;;;;;;5.20;2.80;;;;;;;11.99;100.00;100451.78;1705220;84;21047;-42
2022/07/21 00:14:10;;;;;;;3.70;2.95;;;;;;;11.94;100.00;100455.77;1674239;83;21533;-43
2022/07/21 00:16:39;;;;;;;14.63;3.20;;;;;;;11.90;100.00;100455.02;1711784;83;20960;-43
2022/07/21 00:19:06;;;;;;;6.03;3.00;;;;;;;11.86;100.00;100452.06;1709722;83;22172;-43
2022/07/21 00:21:33;;;;;;;4.03;3.00;;;;;;;11.82;100.00;100454.78;1705322;83;21165;-43
2022/07/21 00:24:00;;;;;;;9.40;3.40;;;;;;;11.76;100.00;100452.75;1706166;83;21012;-43
2022/07/21 00:26:28;;;;;;;6.60;3.20;;;;;;;11.74;100.00;100454.96;1708210;83;21019;-42
2022/07/21 00:28:55;;;;;;;6.10;3.47;;;;;;;11.73;100.00;100451.50;1710929;83;20972;-43
2022/07/21 00:31:22;;;;;;;7.45;3.25;;;;;;;11.72;100.00;100447.66;1705503;83;21569;-43
2022/07/21 00:33:51;;;;;;;10.85;3.10;;;;;;;11.67;100.00;100446.46;1704976;83;21212;-43
2022/07/21 00:36:19;;;;;;;6.05;2.80;;;;;;;11.64;100.00;100451.72;1681388;83;21008;-43
2022/07/21 00:38:48;;;;;;;9.45;3.15;;;;;;;11.59;100.00;100455.70;1699340;83;20988;-43
2022/07/21 00:41:15;;;;;;;6.25;3.10;;;;;;;11.58;100.00;100453.16;1712589;83;20964;-43
2022/07/21 00:43:42;;;;;;;8.30;3.15;;;;;;;11.56;100.00;100451.89;1713617;83;20999;-43
2022/07/21 00:46:08;;;;;;;14.05;3.40;;;;;;;11.53;100.00;100443.35;1712381;83;22347;-42
2022/07/21 00:48:35;;;;;;;10.13;2.98;;;;;;;11.48;100.00;100446.87;1712194;83;21524;-41
2022/07/21 00:51:02;;;;;;;12.50;3.55;;;;;;;11.43;100.00;100441.41;1712427;83;20995;-42
2022/07/21 00:53:29;;;;;;;13.30;3.02;;;;;;;11.39;100.00;100444.50;1711797;83;21031;-43
2022/07/21 00:55:57;;;;;;;3.37;2.70;;;;;;;11.36;100.00;100437.63;1712380;83;21548;-43
2022/07/21 00:58:25;;;;;;;10.68;3.47;;;;;;;11.34;100.00;100439.86;1707362;83;21082;-42
2022/07/21 01:00:52;;;;;;;12.75;3.20;;;;;;;11.31;100.00;100439.47;1711871;83;20996;-44
2022/07/21 01:03:19;;;;;;;4.65;2.85;;;;;;;11.30;100.00;100444.70;1709500;83;20909;-43
2022/07/21 01:05:47;;;;;;;6.03;2.67;;;;;;;11.29;100.00;100439.12;1724550;83;21002;-43
2022/07/21 01:08:16;;;;;;;12.63;3.17;;;;;;;11.28;100.00;100440.00;1725125;83;20972;-43
2022/07/21 01:10:43;;;;;;;8.38;2.85;;;;;;;11.27;100.00;100444.32;1724112;83;21198;-41
2022/07/21 01:13:10;;;;;;;9.10;3.10;;;;;;;11.26;100.00;100429.66;1697925;83;20920;-42
2022/07/21 01:15:37;;;;;;;8.20;2.95;;;;;;;11.26;100.00;100428.83;1724033;83;20947;-42
2022/07/21 01:18:04;;;;;;;10.88;2.98;;;;;;;11.25;100.00;100428.41;1724245;83;20997;-42
2022/07/21 01:20:35;;;;;;;3.98;2.77;;;;;;;11.25;100.00;100431.00;1721687;82;20948;-41
2022/07/21 01:23:03;;;;;;;3.15;2.58;;;;;;;11.25;100.00;100438.78;1721539;82;21812;-43
2022/07/21 01:25:30;;;;;;;5.47;3.00;;;;;;;11.24;100.00;100435.75;1721514;83;20960;-42
2022/07/21 01:27:57;;;;;;;7.00;2.47;;;;;;;11.23;100.00;100436.20;1723580;83;21591;-43
2022/07/21 01:30:24;;;;;;;6.75;2.72;;;;;;;11.23;100.00;100434.05;1719543;83;21039;-44
2022/07/21 01:32:52;;;;;;;9.78;2.50;;;;;;;11.23;100.00;100436.63;1715437;83;21014;-43
2022/07/21 01:35:19;;;;;;;3.58;2.22;;;;;;;11.23;100.00;100443.11;1723350;83;21283;-43
2022/07/21 01:37:48;;;;;;;5.28;2.55;;;;;;;11.21;100.00;100441.41;1721184;83;20978;-43
2022/07/21 01:43:01;;;;;;;;;;;;;;;11.18;100.00;100446.66;1719014;83;21020;-43
2022/07/21 01:45:28;;;;;;;7.42;2.12;;;;;;;11.18;100.00;100452.30;1720810;83;20146;-43
2022/07/21 01:47:55;;;;;;;3.25;2.55;;;;;;;11.16;100.00;100451.48;1723021;83;21164;-43
2022/07/21 01:50:26;;;;;;;5.83;2.37;;;;;;;11.15;100.00;100453.66;1723205;82;20905;-43
2022/07/21 01:52:55;;;;;;;10.15;2.45;;;;;;;11.14;100.00;100459.27;1720926;82;21038;-44
2022/07/21 01:55:24;;;;;;;9.63;2.70;;;;;;;11.14;100.00;100454.55;1724099;83;21015;-43
2022/07/21 01:57:51;;;;;;;8.85;2.20;;;;;;;11.13;100.00;100456.27;1723424;82;21071;-44
2022/07/21 02:00:18;;;;;;;6.28;2.60;;;;;;;11.12;100.00;100458.45;1720179;83;21099;-42
2022/07/21 02:02:45;;;;;;;9.38;2.27;;;;;;;11.12;100.00;100461.50;1722186;82;20995;-43
2022/07/21 02:05:13;;;;;;;11.22;2.37;;;;;;;11.10;100.00;100464.53;1720586;82;21561;-44
2022/07/21 02:07:42;;;;;;;3.62;2.10;;;;;;;11.08;100.00;100468.47;1718249;82;20932;-43
2022/07/21 02:10:09;;;;;;;9.03;1.92;;;;;;;11.07;100.00;100471.95;1685718;85;21015;-44
2022/07/21 02:12:38;;;;;;;5.83;2.40;;;;;;;11.06;100.00;100471.53;1692821;82;21255;-43
2022/07/21 02:15:07;;;;;;;3.37;1.98;;;;;;;11.07;100.00;100465.47;1718730;83;21445;-43
2022/07/21 02:17:34;;;;;;;4.03;2.10;;;;;;;11.06;100.00;100459.42;1719130;83;21042;-43
2022/07/21 02:20:01;;;;;;;3.50;1.90;;;;;;;11.06;100.00;100459.88;1712355;83;21565;-42
2022/07/21 02:22:28;;;;;;;7.08;1.92;;;;;;;11.04;100.00;100462.48;1714155;83;21005;-42
2022/07/21 02:24:56;;;;;;;4.60;1.95;;;;;;;11.04;100.00;100453.87;1719602;83;21728;-42
2022/07/21 02:27:23;;;;;;;6.30;2.22;;;;;;;11.04;100.00;100453.87;1719592;83;21099;-42
2022/07/21 02:29:50;;;;;;;11.97;2.12;;;;;;;11.04;100.00;100458.61;1720101;83;20952;-43
2022/07/21 02:32:17;;;;;;;6.37;2.22;;;;;;;11.05;100.00;100457.72;1718792;82;21038;-44
2022/07/21 02:34:44;;;;;;;3.80;1.95;;;;;;;11.06;100.00;100453.41;1713617;82;20988;-43
2022/07/21 02:37:11;;;;;;;9.83;2.15;;;;;;;11.07;100.00;100455.11;1719068;83;21266;-42
2022/07/21 02:39:39;;;;;;;6.95;2.10;;;;;;;11.08;100.00;100451.63;1713030;83;21528;-42
2022/07/21 02:42:06;;;;;;;4.75;2.00;;;;;;;11.08;100.00;100454.22;1712747;83;21026;-43
2022/07/21 02:44:33;;;;;;;3.08;1.98;;;;;;;11.08;100.00;100458.11;1718831;82;21044;-43
2022/07/21 02:47:02;;;;;;;10.55;2.33;;;;;;;11.08;100.00;100452.92;1716802;82;21003;-43
2022/07/21 02:49:29;;;;;;;9.03;2.10;;;;;;;11.10;100.00;100461.52;1690303;83;21269;-42
2022/07/21 02:51:56;;;;;;;12.80;2.00;;;;;;;11.10;100.00;100458.92;1719746;83;20884;-42
2022/07/21 02:54:24;;;;;;;6.37;2.20;;;;;;;11.14;100.00;100463.16;1713299;82;20984;-42
2022/07/21 02:56:51;;;;;;;6.42;1.82;;;;;;;11.17;100.00;100461.80;1708064;83;20991;-43
2022/07/21 02:59:18;;;;;;;3.72;2.30;;;;;;;11.20;100.00;100460.43;1715084;82;21039;-43
2022/07/21 03:01:45;;;;;;;5.60;1.85;;;;;;;11.23;100.00;100458.23;1712603;82;21247;-42
2022/07/21 03:04:12;;;;;;;2.70;1.42;;;;;;;11.26;100.00;100456.87;1685597;83;21486;-43
2022/07/21 03:06:39;;;;;;;11.30;2.17;;;;;;;11.30;100.00;100460.26;1721864;83;21059;-43
2022/07/21 03:09:06;;;;;;;6.17;1.67;;;;;;;11.33;100.00;100455.00;1716331;83;20956;-42
2022/07/21 03:11:33;;;;;;;8.15;2.17;;;;;;;11.36;100.00;100464.00;1717727;83;21018;-42
2022/07/21 03:14:01;;;;;;;4.70;1.87;;;;;;;11.41;100.00;100450.95;1718424;83;21251;-43
2022/07/21 03:16:27;;;;;;;6.92;1.60;;;;;;;11.45;100.00;100446.11;1718497;83;21019;-44
2022/07/21 03:20:13;;;;;;;4.22;2.02;;;;;;;11.56;100.00;100437.63;1811639;79;22350;-44
2022/07/21 03:22:40;;;;;;;2.37;1.80;;;;;;;11.58;100.00;100437.16;1786498;79;20978;-42
2022/07/21 03:25:08;;;;;;;4.78;1.82;;;;;;;11.63;100.00;100442.23;1786896;80;21254;-43
2022/07/21 03:27:36;;;;;;;6.55;1.50;;;;;;;11.71;100.00;100440.77;1783642;79;20959;-43
2022/07/21 03:30:06;;;;;;;3.55;1.70;;;;;;;11.75;100.00;100440.67;1788065;80;20955;-43
2022/07/21 03:32:33;;;;;;;6.35;1.98;;;;;;;11.83;100.00;100441.77;1786218;79;21549;-43
2022/07/21 03:35:00;;;;;;;5.33;1.85;;;;;;;11.91;100.00;100435.10;1788305;79;20911;-42
2022/07/21 03:37:27;;;;;;;9.95;1.75;;;;;;;11.96;100.00;100435.83;1776890;80;21166;-43
2022/07/21 03:39:54;;;;;;;6.00;2.08;;;;;;;12.04;100.00;100436.98;1782971;80;20912;-43
2022/07/21 03:42:21;;;;;;;3.47;1.57;;;;;;;12.10;100.00;100439.41;1785658;80;21547;-43
2022/07/21 03:44:48;;;;;;;11.75;2.12;;;;;;;12.15;100.00;100439.31;1787690;80;21448;-44
2022/07/21 03:47:15;;;;;;;10.18;1.85;;;;;;;12.22;100.00;100439.55;1787869;80;20986;-43
2022/07/21 03:49:42;;;;;;;5.28;2.15;;;;;;;12.29;100.00;100431.17;1788579;80;21259;-43
2022/07/21 03:52:09;;;;;;;4.37;1.62;;;;;;;12.36;100.00;100427.08;1786988;80;20885;-43
2022/07/21 03:54:36;;;;;;;7.72;1.95;;;;;;;12.46;100.00;100430.29;1787075;80;21022;-42
2022/07/21 03:57:05;;;;;;;11.73;2.02;;;;;;;12.58;100.00;100423.92;1785016;79;20919;-42
2022/07/21 03:59:33;;;;;;;17.80;1.85;;;;;;;12.76;100.00;100419.95;1763306;80;20893;-43
2022/07/21 04:02:00;;;;;;;8.25;1.60;;;;;;;13.01;100.00;100413.19;1757136;80;21148;-43
2022/07/21 04:04:28;;;;;;;2.85;1.20;;;;;;;13.23;100.00;100416.85;1747638;79;21026;-42
2022/07/21 04:06:55;;;;;;;6.17;1.17;;;;;;;13.49;100.00;100426.94;1737575;81;21006;-42
2022/07/21 04:09:22;;;;;;;11.10;1.62;;;;;;;13.70;100.00;100423.27;1734776;81;21011;-43
2022/07/21 04:11:50;;;;;;;8.98;1.25;;;;;;;13.88;100.00;100422.28;1731497;81;20971;-43
2022/07/21 04:14:17;;;;;;;5.08;1.45;;;;;;;14.04;100.00;100426.09;1730708;81;21246;-43
2022/07/21 04:16:44;;;;;;;2.75;1.35;;;;;;;14.25;100.00;100422.33;1747854;79;20975;-44
2022/07/21 04:19:10;;;;;;;3.85;1.20;;;;;;;14.47;100.00;100417.68;1728113;81;21023;-44
2022/07/21 04:21:39;;;;;;;3.15;1.37;;;;;;;14.63;100.00;100421.45;1758149;80;20933;-43
2022/07/21 04:24:07;;;;;;;4.25;1.35;;;;;;;14.70;100.00;100422.52;1756080;81;20980;-43
2022/07/21 04:26:34;;;;;;;5.17;2.12;;;;;;;14.80;100.00;100426.08;1735200;81;21287;-43
2022/07/21 04:29:01;;;;;;;5.67;1.42;;;;;;;14.97;100.00;100426.36;1744753;81;21016;-43
2022/07/21 04:31:28;;;;;;;2.17;1.22;;;;;;;15.11;100.00;100416.27;1745173;81;20992;-44
2022/07/21 04:33:55;;;;;;;2.02;1.37;;;;;;;15.28;100.00;100417.36;1738820;81;21007;-42
2022/07/21 04:36:22;;;;;;;7.53;1.27;;;;;;;15.41;100.00;100422.95;1734261;82;21023;-44
2022/07/21 04:38:49;;;;;;;8.60;1.52;;;;;;;15.53;100.00;100419.87;1740044;81;21134;-43
2022/07/21 04:41:17;;;;;;;6.47;1.37;;;;;;;15.70;100.00;100424.41;1756870;81;21016;-43
2022/07/21 04:43:44;;;;;;;5.42;1.20;;;;;;;15.91;100.00;100426.66;1740195;81;20964;-44
2022/07/21 04:46:11;;;;;;;4.87;1.20;;;;;;;15.98;100.00;100427.70;1764372;81;20932;-43
2022/07/21 04:48:39;;;;;;;5.33;1.22;;;;;;;16.00;100.00;100422.78;1749696;81;20941;-44
2022/07/21 04:51:06;;;;;;;10.95;1.52;;;;;;;16.09;100.00;100422.86;1734090;82;21265;-43
2022/07/21 04:53:33;;;;;;;6.33;1.10;;;;;;;16.14;100.00;100421.38;1740240;81;20925;-43
2022/07/21 04:56:00;;;;;;;4.70;1.30;;;;;;;16.25;100.00;100420.92;1763743;81;20933;-43
2022/07/21 04:58:28;;;;;;;3.00;1.10;;;;;;;16.43;100.00;100416.22;1751204;81;20965;-43
2022/07/21 05:00:55;;;;;;;6.00;1.47;;;;;;;16.59;100.00;100420.30;1754094;80;20941;-42
2022/07/21 05:03:22;;;;;;;2.08;1.32;;;;;;;16.75;100.00;100416.98;1741457;81;21253;-42
2022/07/21 05:05:49;;;;;;;4.45;1.40;;;;;;;16.94;100.00;100416.55;1760062;81;21067;-44
2022/07/21 05:08:16;;;;;;;1.30;1.20;;;;;;;17.12;100.00;100415.35;1763062;81;20954;-44
2022/07/21 05:10:43;;;;;;;7.35;1.30;;;;;;;17.22;100.00;100413.99;1756776;81;20925;-43
2022/07/21 05:13:10;;;;;;;5.58;1.10;;;;;;;17.30;100.00;100414.95;1735939;81;20960;-43
2022/07/21 05:15:38;;;;;;;4.10;1.10;;;;;;;17.37;98.97;100414.20;1740216;81;21140;-43
2022/07/21 05:18:09;;;;;;;7.78;1.10;;;;;;;17.49;100.00;100412.77;1750136;81;20913;-43
2022/07/21 05:20:36;;;;;;;4.22;1.20;;;;;;;17.66;100.00;100404.92;1755672;81;20901;-44
2022/07/21 05:23:04;;;;;;;4.92;0.95;;;;;;;17.81;100.00;100402.03;1741500;81;21212;-44
2022/07/21 05:25:35;;;;;;;2.58;1.00;;;;;;;17.81;94.43;100402.03;1754942;81;21000;-44
2022/07/21 05:28:02;;;;;;;6.53;1.27;;;;;;;17.84;94.49;100401.02;1743761;81;21777;-45
2022/07/21 05:30:30;;;;;;;1.42;1.00;;;;;;;17.98;97.29;100401.63;1706868;82;20965;-43
2022/07/21 05:32:58;;;;;;;0.72;0.72;;;;;;;18.20;99.00;100401.89;1740865;81;21012;-44
2022/07/21 05:35:25;;;;;;;6.90;1.00;;;;;;;18.33;94.29;100391.62;1743736;80;21418;-43
2022/07/21 05:37:52;;;;;;;5.62;1.17;;;;;;;18.44;92.70;100391.92;1753126;81;21012;-44
2022/07/21 05:40:18;;;;;;;5.33;1.10;;;;;;;18.51;87.55;100390.67;1732958;81;21106;-44
2022/07/21 05:42:46;;;;;;;4.92;1.02;;;;;;;18.55;85.40;100387.88;1732169;81;20996;-44
2022/07/21 05:45:13;;;;;;;7.45;1.05;;;;;;;18.54;84.13;100394.88;1732988;81;21530;-44
2022/07/21 05:47:40;;;;;;;15.03;0.88;;;;;;;18.69;84.18;100391.91;1733051;81;20909;-44
2022/07/21 05:50:09;;;;;;;12.85;0.95;;;;;;;18.88;83.10;100382.60;1731934;82;20972;-44
2022/07/21 05:52:36;;;;;;;0.90;0.82;;;;;;;19.06;83.02;100383.84;1750239;81;21526;-44
2022/07/21 05:55:06;;;;;;;2.17;1.00;;;;;;;19.29;85.36;100385.20;1739381;81;20897;-43
2022/07/21 05:57:33;;;;;;;5.35;1.02;;;;;;;19.61;85.49;100386.94;1738373;81;20914;-44
2022/07/21 06:00:01;;;;;;;5.83;0.88;;;;;;;19.84;79.85;100392.64;1734302;81;21466;-43
2022/07/21 06:02:32;;;;;;;1.42;0.98;;;;;;;19.81;74.67;100398.91;1728568;81;20944;-44
2022/07/21 06:04:56;;;;;;;3.02;0.90;;;;;;;19.67;73.09;100392.66;1751589;81;21322;-43
2022/07/21 06:07:23;;;;;;;3.67;0.90;;;;;;;19.52;72.59;100392.25;1755422;80;20993;-44
2022/07/21 06:09:50;;;;;;;6.12;0.88;;;;;;;19.58;76.75;100385.77;1757289;81;21000;-43
2022/07/21 06:12:18;;;;;;;9.90;1.05;;;;;;;19.65;74.90;100395.02;1736486;81;22604;-44
2022/07/21 06:14:45;;;;;;;7.60;0.90;;;;;;;19.68;76.59;100398.77;1757346;81;21020;-43
2022/07/21 06:17:13;;;;;;;2.22;1.05;;;;;;;19.66;73.69;100388.83;1738021;81;20902;-44
2022/07/21 06:19:40;;;;;;;10.23;1.02;;;;;;;19.65;73.68;100394.53;1759450;80;20964;-44
2022/07/21 06:22:07;;;;;;;0.90;0.62;;;;;;;19.66;72.14;100381.77;1757067;81;20973;-43
2022/07/21 06:24:35;;;;;;;9.80;1.17;;;;;;;19.67;73.37;100386.58;1741304;81;21019;-43
2022/07/21 06:27:03;;;;;;;4.50;0.95;;;;;;;19.68;71.90;100389.09;1732150;81;21020;-44
2022/07/21 06:29:31;;;;;;;9.98;1.00;;;;;;;19.61;69.42;100393.50;1733755;81;22134;-43
2022/07/21 06:31:58;;;;;;;5.15;1.05;;;;;;;19.61;74.42;100390.39;1734775;81;20953;-44
2022/07/21 06:34:26;;;;;;;6.35;1.02;;;;;;;19.55;71.06;100388.12;1748438;80;20905;-43
2022/07/21 06:36:54;;;;;;;1.22;0.90;;;;;;;19.56;72.51;100396.83;1751079;81;22127;-43
2022/07/21 06:39:21;;;;;;;4.40;1.10;;;;;;;19.52;71.97;100386.52;1732182;81;21001;-44
2022/07/21 06:41:48;;;;;;;4.22;1.35;;;;;;;19.51;72.67;100392.70;1742067;81;22128;-43
2022/07/21 06:44:15;;;;;;;9.33;1.10;;;;;;;19.57;71.20;100376.20;1740281;81;21028;-43
2022/07/21 06:46:42;;;;;;;11.25;1.30;;;;;;;19.61;70.63;100394.33;1741408;81;20945;-44
2022/07/21 06:49:09;;;;;;;5.20;0.93;;;;;;;19.58;72.83;100392.34;1758730;81;20949;-43
2022/07/21 06:51:37;;;;;;;6.78;1.32;;;;;;;19.53;71.42;100382.13;1758420;81;21004;-43
2022/07/21 06:54:05;;;;;;;2.27;1.07;;;;;;;19.59;73.07;100382.25;1737222;81;21273;-44
2022/07/21 06:56:32;;;;;;;6.22;0.93;;;;;;;19.63;70.91;100392.45;1747732;81;20976;-43
2022/07/21 06:58:58;;;;;;;4.53;0.95;;;;;;;19.63;70.35;100382.44;1731943;81;20925;-43
2022/07/21 07:01:25;;;;;;;2.33;0.80;;;;;;;19.67;68.13;100374.28;1743561;81;21103;-44
2022/07/21 07:03:53;;;;;;;8.18;0.88;;;;;;;19.68;68.40;100370.72;1739489;81;20909;-44
2022/07/21 07:06:21;;;;;;;3.65;0.95;;;;;;;19.77;69.00;100373.28;1739939;81;21281;-44
2022/07/21 07:08:49;;;;;;;4.83;0.68;;;;;;;19.91;65.61;100380.86;1740262;81;20944;-44
2022/07/21 07:11:16;;;;;;;2.60;1.00;;;;;;;19.92;64.90;100377.30;1744384;81;22273;-44
2022/07/21 07:13:43;;;;;;;12.85;0.90;;;;;;;19.94;66.92;100375.42;1745932;81;20945;-44
2022/07/21 07:16:11;;;;;;;1.25;0.85;;;;;;;20.03;66.34;100372.72;1733979;81;21027;-44
2022/07/21 07:18:38;;;;;;;5.55;0.90;;;;;;;20.17;67.17;100367.95;1731864;81;21163;-44
2022/07/21 07:21:05;;;;;;;3.10;0.88;;;;;;;20.32;62.32;100378.00;1735435;81;21027;-43
2022/07/21 07:23:33;;;;;;;6.30;1.00;;;;;;;20.43;65.12;100372.09;1742410;81;20988;-43
2022/07/21 07:26:00;;;;;;;0.93;0.60;;;;;;;20.53;65.48;100385.03;1734178;81;21031;-43
2022/07/21 07:28:28;;;;;;;9.08;0.82;;;;;;;20.62;60.38;100377.91;1742816;81;21011;-43
2022/07/21 07:30:55;;;;;;;2.02;0.57;;;;;;;20.67;64.38;100375.84;1747242;81;21154;-43
2022/07/21 07:33:24;;;;;;;7.50;0.82;;;;;;;20.82;63.65;100373.20;1740608;81;20917;-43
2022/07/21 07:35:52;;;;;;;3.20;0.50;;;;;;;20.93;60.94;100362.86;1751284;81;20948;-43
2022/07/21 07:38:20;;;;;;;6.25;0.60;;;;;;;21.00;58.31;100362.46;1754102;81;20969;-43
2022/07/21 07:40:47;;;;;;;1.80;0.42;;;;;;;20.99;60.20;100371.30;1747341;81;21043;-43
2022/07/21 07:43:14;;;;;;;5.00;0.50;;;;;;;21.03;57.53;100361.80;1740422;81;21300;-43
2022/07/21 07:45:41;;;;;;;2.20;0.60;;;;;;;21.04;57.51;100370.53;1752236;81;21024;-42
2022/07/21 07:48:09;;;;;;;2.35;0.50;;;;;;;20.99;57.65;100373.93;1751712;81;20893;-43
2022/07/21 07:50:38;;;;;;;7.58;0.70;;;;;;;20.94;57.33;100376.38;1756717;81;21059;-42
2022/07/21 07:53:04;;;;;;;3.27;0.68;;;;;;;21.05;61.58;100365.18;1742844;81;20953;-42
2022/07/21 07:55:32;;;;;;;1.72;0.70;;;;;;;21.26;56.37;100372.64;1755128;81;21229;-42
2022/07/21 07:57:59;;;;;;;4.83;0.93;;;;;;;21.30;58.00;100362.73;1739967;81;21052;-43
2022/07/21 08:00:26;;;;;;;7.58;0.70;;;;;;;21.40;55.92;100370.42;1743216;81;20988;-43
2022/07/21 08:02:53;;;;;;;3.50;0.53;;;;;;;21.52;56.94;100368.28;1743212;81;20992;-43
2022/07/21 08:05:20;;;;;;;2.87;0.45;;;;;;;21.55;56.27;100352.77;1737660;81;20937;-42
2022/07/21 08:07:47;;;;;;;4.08;0.80;;;;;;;21.54;56.76;100349.27;1736713;81;21159;-43
2022/07/21 08:10:14;;;;;;;4.50;0.60;;;;;;;21.51;56.10;100365.28;1731623;82;21174;-43
2022/07/21 08:12:42;;;;;;;3.77;0.80;;;;;;;21.57;57.60;100363.17;1731457;82;20933;-43
2022/07/21 08:15:10;;;;;;;1.67;0.68;;;;;;;21.76;56.14;100353.14;1731677;82;21027;-43
2022/07/21 08:17:37;;;;;;;4.85;0.40;;;;;;;21.92;54.88;100342.89;1731895;82;20977;-43
2022/07/21 08:20:06;;;;;;;17.15;0.90;;;;;;;21.94;53.77;100346.27;1727478;82;21144;-44
2022/07/21 08:22:33;;;;;;;11.20;0.70;;;;;;;21.94;55.82;100330.45;1719170;83;21035;-44
2022/07/21 08:25:00;;;;;;;11.93;0.78;;;;;;;22.01;54.30;100325.62;1716188;83;21098;-43
2022/07/21 08:27:28;;;;;;;3.62;0.40;;;;;;;22.15;54.12;100351.84;1716087;83;20960;-43
2022/07/21 08:29:56;;;;;;;1.67;0.70;;;;;;;22.28;54.54;100334.70;1716248;83;20940;-44
2022/07/21 08:32:23;;;;;;;3.25;0.50;;;;;;;22.33;54.03;100339.17;1716287;82;21285;-44
2022/07/21 08:34:51;;;;;;;12.30;0.72;;;;;;;22.55;54.18;100331.10;1716362;83;20991;-43
2022/07/21 08:37:21;;;;;;;6.87;0.75;;;;;;;22.77;56.75;100327.79;1716473;83;20979;-44
2022/07/21 08:39:48;;;;;;;12.35;0.85;;;;;;;22.94;53.50;100327.88;1695906;83;21000;-45
2022/07/21 08:42:16;;;;;;;3.05;0.60;;;;;;;22.87;52.19;100325.33;1716496;83;20936;-44
2022/07/21 08:44:43;;;;;;;9.63;0.72;;;;;;;22.70;52.71;100317.29;1716464;83;21329;-43
2022/07/21 08:47:10;;;;;;;4.45;0.60;;;;;;;22.65;54.39;100334.78;1716357;83;20935;-44
2022/07/21 08:49:38;;;;;;;3.98;0.70;;;;;;;22.63;50.95;100313.41;1716443;83;21497;-44
2022/07/21 08:52:07;;;;;;;7.70;0.57;;;;;;;22.53;51.32;100311.45;1716362;82;20970;-44
2022/07/21 08:54:34;;;;;;;10.03;0.90;;;;;;;22.72;55.29;100321.16;1696101;83;21130;-45
2022/07/21 08:57:01;;;;;;;4.50;0.78;;;;;;;22.94;54.37;100312.05;1716321;83;21186;-44
2022/07/21 08:59:29;;;;;;;3.83;0.72;;;;;;;22.82;56.06;100311.14;1716212;83;21497;-44
2022/07/21 09:01:56;;;;;;;4.25;0.50;;;;;;;22.82;54.45;100300.59;1716129;83;21003;-44
2022/07/21 09:04:30;;;;;;;4.20;0.80;;;;;;;22.86;52.07;100314.41;1695831;83;20912;-44
2022/07/21 09:07:04;;;;;;;4.65;0.70;;;;;;;23.00;52.49;100319.14;1715604;83;21023;-44
2022/07/21 09:09:35;;;;;;;1.10;0.50;;;;;;;23.04;53.03;100308.26;1716532;83;20994;-44
2022/07/21 09:12:02;;;;;;;8.08;0.95;;;;;;;23.19;54.53;100302.78;1716108;83;20901;-45
2022/07/21 09:14:32;;;;;;;0.57;0.40;;;;;;;23.33;52.30;100314.98;1719665;82;21533;-44
2022/07/21 09:17:03;;;;;;;11.97;1.52;;;;;;;23.14;50.78;100312.85;1716225;83;21558;-44
2022/07/21 09:19:35;;;;;;;5.92;0.60;;;;;;;22.88;52.59;100305.05;1716407;83;20975;-44
2022/07/21 09:22:05;;;;;;;3.67;0.70;;;;;;;22.74;53.64;100310.01;1718730;82;21808;-44
2022/07/21 09:24:39;;;;;;;0.82;0.57;;;;;;;22.68;51.96;100302.91;1718882;83;20936;-44
2022/07/21 09:27:24;;;;;;;5.17;0.60;;;;;;;22.76;52.92;100306.32;1718806;83;21619;-44
2022/07/21 09:29:56;;;;;;;4.65;0.60;;;;;;;23.00;51.42;100308.13;1718341;83;21040;-44
2022/07/21 09:32:29;;;;;;;5.22;0.70;;;;;;;23.05;50.21;100294.57;1719007;83;20963;-44
2022/07/21 09:35:09;;;;;;;4.78;0.60;;;;;;;23.14;52.13;100302.30;1719079;83;21265;-44
2022/07/21 09:37:37;;;;;;;3.55;0.80;;;;;;;23.29;50.27;100291.09;1718952;82;20920;-44
2022/07/21 09:40:12;;;;;;;1.62;0.47;;;;;;;23.45;54.11;100282.39;1718914;83;20960;-43
2022/07/21 09:42:43;;;;;;;7.97;0.80;;;;;;;23.82;51.54;100280.06;1718978;83;21027;-44
2022/07/21 09:45:12;;;;;;;1.10;0.40;;;;;;;23.95;50.11;100284.73;1717980;83;21046;-44
2022/07/21 09:47:40;;;;;;;2.37;0.55;;;;;;;23.85;51.18;100278.96;1718935;83;21228;-42
2022/07/21 09:50:12;;;;;;;3.08;0.50;;;;;;;24.02;53.17;100279.85;1718801;83;20936;-43
2022/07/21 09:52:41;;;;;;;4.65;0.80;;;;;;;24.13;49.55;100261.00;1718946;83;21022;-43
2022/07/21 09:55:14;;;;;;;4.35;0.40;;;;;;;23.82;50.05;100267.67;1719111;83;22416;-43
2022/07/21 09:57:41;;;;;;;10.13;0.60;;;;;;;23.84;52.25;100264.92;1718941;83;20941;-43
2022/07/21 10:00:12;;;;;;;8.58;0.57;;;;;;;24.02;52.45;100268.45;1718875;83;21230;-43
2022/07/21 10:02:39;;;;;;;6.60;0.50;;;;;;;24.09;52.09;100265.19;1718682;83;21011;-43
2022/07/21 10:05:13;;;;;;;7.97;0.50;;;;;;;24.32;52.69;100254.59;1719021;83;21524;-43
2022/07/21 10:07:44;;;;;;;17.98;0.60;;;;;;;24.75;51.93;100264.03;1719077;83;21027;-43
2022/07/21 10:10:11;;;;;;;3.50;0.30;;;;;;;25.09;47.95;100263.42;1718919;83;21007;-43
2022/07/21 10:12:40;;;;;;;5.78;0.50;;;;;;;24.97;47.46;100256.48;1719002;83;21976;-44
2022/07/21 10:15:09;;;;;;;4.30;0.40;;;;;;;24.83;48.29;100260.27;1718771;82;21015;-43
2022/07/21 10:17:36;;;;;;;1.10;0.50;;;;;;;24.73;48.35;100261.97;1718776;83;20972;-44
2022/07/21 10:20:14;;;;;;;5.62;0.62;;;;;;;24.89;48.16;100244.37;1692281;83;21533;-43
2022/07/21 10:23:15;;;;;;;2.85;0.75;;;;;;;24.94;49.39;100258.91;1718560;83;21015;-44
2022/07/21 10:25:43;;;;;;;8.10;0.82;;;;;;;24.90;49.01;100260.61;1718678;83;21070;-44
2022/07/21 10:28:17;;;;;;;4.28;0.50;;;;;;;24.81;49.32;100259.55;1718832;83;21030;-45
2022/07/21 10:30:54;;;;;;;6.62;1.00;;;;;;;24.45;48.49;100261.55;1718796;83;21616;-44
2022/07/21 10:33:48;;;;;;;4.37;1.25;;;;;;;24.11;49.09;100257.15;1718899;83;21066;-44
2022/07/21 10:36:37;;;;;;;0.70;0.45;;;;;;;23.85;49.92;100268.39;1726826;82;21623;-44
2022/07/21 10:39:16;;;;;;;3.77;0.50;;;;;;;23.64;50.11;100258.05;1748631;82;21240;-44
2022/07/21 10:41:54;;;;;;;3.70;0.80;;;;;;;23.60;52.01;100253.97;1748282;82;20944;-44
2022/07/21 10:44:35;;;;;;;2.12;0.50;;;;;;;23.62;52.43;100247.23;1748615;82;20928;-44
2022/07/21 10:47:10;;;;;;;6.40;0.80;;;;;;;23.50;50.95;100256.97;1748290;82;20900;-43
2022/07/21 10:50:00;;;;;;;9.03;1.12;;;;;;;23.34;51.86;100252.84;1748794;82;20920;-43
2022/07/21 10:52:42;;;;;;;3.90;0.62;;;;;;;23.09;52.73;100266.53;1748662;82;21228;-44
2022/07/21 10:55:25;;;;;;;4.95;0.70;;;;;;;23.01;54.47;100259.67;1748660;82;20920;-44
2022/07/21 10:58:12;;;;;;;3.42;0.78;;;;;;;23.21;54.06;100239.69;1748105;82;20976;-44
2022/07/21 11:00:52;;;;;;;4.92;0.80;;;;;;;23.27;52.92;100238.43;1748470;82;20983;-42
2022/07/21 11:03:31;;;;;;;1.35;0.80;;;;;;;23.27;53.55;100232.30;1748544;82;21529;-43
2022/07/21 11:06:11;;;;;;;4.00;0.80;;;;;;;23.44;54.01;100238.46;1748399;81;21549;-43
2022/07/21 11:09:04;;;;;;;2.83;0.70;;;;;;;23.84;53.54;100239.82;1721818;82;20987;-43
2022/07/21 11:11:36;;;;;;;3.87;0.78;;;;;;;24.13;52.86;100243.33;1748737;82;20952;-43
2022/07/21 11:14:14;;;;;;;3.98;0.70;;;;;;;24.20;52.06;100239.22;1748919;82;21003;-44
2022/07/21 11:16:54;;;;;;;5.78;0.80;;;;;;;23.98;52.89;100236.09;1748467;82;20892;-45
2022/07/21 11:19:47;;;;;;;3.20;0.60;;;;;;;23.90;55.32;100235.87;1748595;81;21157;-44
2022/07/21 11:22:23;;;;;;;6.47;0.90;;;;;;;23.95;54.84;100244.27;1748549;81;21478;-42
2022/07/21 11:24:58;;;;;;;2.58;0.70;;;;;;;24.10;55.10;100233.00;1748477;82;20944;-44
2022/07/21 11:27:26;;;;;;;4.58;0.80;;;;;;;24.30;52.66;100222.14;1748621;82;20979;-44
2022/07/21 11:29:56;;;;;;;4.20;0.95;;;;;;;24.14;51.93;100229.64;1748826;82;20940;-45
2022/07/21 11:32:24;;;;;;;2.72;0.62;;;;;;;23.96;53.77;100246.77;1748556;81;22077;-44
2022/07/21 11:34:56;;;;;;;4.60;0.70;;;;;;;24.15;54.81;100230.00;1748452;81;20976;-44